Time;durP1;ratioP1;P1;durP2;ratioP2;P2;SDS_P1;SDS_P2;PMS_P1;PMS_P2;Temp;Humidity;BMP_temperature;BMP_pressure;BME280_temperature;BME280_humidity;BME280_pressure;Samples;Min_cycle;Max_cycle;Signal;HPM_P1;HPM_P2
2022/08/06 00:00:46;;;;;;;1.80;1.38;;;13.70;99.90;;;;;;5033012;28;20049;-80
2022/08/06 00:03:12;;;;;;;4.15;1.77;;;13.60;99.90;;;;;;5034234;28;20049;-81
2022/08/06 00:05:37;;;;;;;1.30;1.17;;;13.60;99.90;;;;;;5033862;28;20479;-80
2022/08/06 00:08:04;;;;;;;1.50;1.33;;;13.60;99.90;;;;;;5033969;28;20146;-81
2022/08/06 00:10:29;;;;;;;3.78;1.95;;;13.60;99.90;;;;;;5032708;28;20060;-84
2022/08/06 00:12:55;;;;;;;2.75;1.30;;;13.60;99.90;;;;;;5034097;28;20046;-84
2022/08/06 00:15:21;;;;;;;1.58;1.45;;;13.50;99.90;;;;;;5034816;28;20049;-84
2022/08/06 00:17:47;;;;;;;1.40;1.30;;;13.40;99.90;;;;;;5034334;28;20385;-83
2022/08/06 00:20:14;;;;;;;1.85;1.55;;;13.40;99.90;;;;;;5034040;28;20133;-83
2022/08/06 00:22:39;;;;;;;1.23;1.13;;;13.40;99.90;;;;;;5034637;28;20430;-84
2022/08/06 00:25:07;;;;;;;1.60;1.38;;;13.30;99.90;;;;;;5033471;28;20132;-82
2022/08/06 00:27:33;;;;;;;4.55;2.00;;;13.30;99.90;;;;;;5034140;28;20046;-83
2022/08/06 00:29:59;;;;;;;2.15;1.40;;;13.30;99.90;;;;;;5033112;28;20050;-84
2022/08/06 00:32:25;;;;;;;2.70;1.30;;;13.20;99.90;;;;;;5033845;28;20430;-84
2022/08/06 00:34:51;;;;;;;2.58;1.70;;;12.80;99.90;;;;;;5033814;28;20124;-84
2022/08/06 00:37:16;;;;;;;4.32;1.73;;;13.10;99.90;;;;;;5034093;28;20042;-83
2022/08/06 00:39:42;;;;;;;1.63;1.52;;;13.10;99.90;;;;;;5033868;28;20056;-83
2022/08/06 00:42:08;;;;;;;1.65;1.55;;;13.10;99.90;;;;;;5034198;28;20056;-83
2022/08/06 00:44:35;;;;;;;3.78;1.80;;;13.10;99.90;;;;;;5032678;28;20361;-83
2022/08/06 00:47:01;;;;;;;2.40;1.45;;;13.10;99.90;;;;;;5032910;28;20041;-84
2022/08/06 00:49:26;;;;;;;2.60;1.98;;;13.10;99.90;;;;;;5033865;28;20056;-81
2022/08/06 00:51:52;;;;;;;2.72;1.60;;;13.00;99.90;;;;;;5033504;28;20462;-83
2022/08/06 00:54:19;;;;;;;1.65;1.55;;;13.00;99.90;;;;;;5033227;28;20057;-80
2022/08/06 00:56:45;;;;;;;2.75;2.03;;;13.00;99.90;;;;;;5033517;28;20042;-82
2022/08/06 00:59:11;;;;;;;4.28;1.80;;;13.00;99.90;;;;;;5033404;28;20095;-84
2022/08/06 01:01:37;;;;;;;4.35;2.08;;;13.00;99.90;;;;;;5033997;28;20049;-84
2022/08/06 01:04:02;;;;;;;2.65;1.60;;;12.90;99.90;;;;;;5033388;28;20045;-83
2022/08/06 01:06:28;;;;;;;2.08;1.48;;;12.90;99.90;;;;;;5032671;28;20466;-81
2022/08/06 01:08:54;;;;;;;3.13;1.80;;;12.90;99.90;;;;;;5033298;28;20061;-83
2022/08/06 01:11:20;;;;;;;4.35;1.83;;;12.80;99.90;;;;;;5033472;28;20497;-83
2022/08/06 01:13:45;;;;;;;2.25;1.45;;;12.80;99.90;;;;;;5033598;28;20041;-81
2022/08/06 01:16:33;;;;;;;1.35;1.25;;;12.80;99.90;;;;;;5033015;28;20496;-81
2022/08/06 01:19:17;;;;;;;1.95;1.67;;;12.80;99.90;;;;;;5033088;28;20052;-81
2022/08/06 01:21:54;;;;;;;3.30;1.63;;;12.70;99.90;;;;;;5032931;28;20078;-83
2022/08/06 01:24:39;;;;;;;2.08;1.75;;;12.70;99.90;;;;;;5032776;28;20057;-83
2022/08/06 01:27:32;;;;;;;1.63;1.48;;;12.70;99.90;;;;;;5032789;28;20094;-84
2022/08/06 01:30:04;;;;;;;4.70;1.43;;;12.70;99.90;;;;;;5032857;28;20106;-84
2022/08/06 01:32:35;;;;;;;4.38;1.30;;;12.60;99.90;;;;;;5032088;28;20299;-83
2022/08/06 01:35:21;;;;;;;2.03;1.92;;;12.60;99.90;;;;;;5033309;28;20088;-82
2022/08/06 01:38:00;;;;;;;4.22;1.52;;;12.60;99.90;;;;;;5015539;28;20045;-84
2022/08/06 01:40:31;;;;;;;4.80;1.80;;;12.60;99.90;;;;;;5032804;28;20096;-82
2022/08/06 01:42:58;;;;;;;2.90;1.20;;;12.60;99.90;;;;;;5032571;28;20060;-81
2022/08/06 01:45:27;;;;;;;2.22;1.55;;;12.50;99.90;;;;;;5032906;28;20053;-81
2022/08/06 01:47:58;;;;;;;1.90;1.73;;;12.50;99.90;;;;;;5032305;28;20041;-84
2022/08/06 01:50:28;;;;;;;2.13;1.30;;;12.50;99.90;;;;;;5031217;28;20049;-82
2022/08/06 01:52:57;;;;;;;1.73;1.63;;;12.50;99.90;;;;;;5032877;28;20121;-82
2022/08/06 01:55:27;;;;;;;2.85;1.60;;;12.50;99.90;;;;;;5032457;28;20115;-84
2022/08/06 01:57:57;;;;;;;2.97;2.00;;;12.50;99.90;;;;;;5032334;28;20045;-84
2022/08/06 02:00:24;;;;;;;1.55;1.42;;;12.50;99.90;;;;;;5031661;28;20064;-83
2022/08/06 02:02:51;;;;;;;2.40;1.48;;;12.50;99.90;;;;;;5031821;28;20374;-85
2022/08/06 02:05:19;;;;;;;2.05;1.38;;;12.50;99.90;;;;;;5031368;28;20041;-82
2022/08/06 02:07:50;;;;;;;1.40;1.30;;;12.40;99.90;;;;;;5032217;28;20033;-83
2022/08/06 02:10:18;;;;;;;2.70;1.60;;;12.40;99.90;;;;;;5031194;28;20128;-83
2022/08/06 02:12:47;;;;;;;1.52;1.40;;;12.30;99.90;;;;;;5032284;28;20482;-84
2022/08/06 02:15:26;;;;;;;2.90;1.73;;;12.30;99.90;;;;;;5031414;28;20065;-83
2022/08/06 02:17:56;;;;;;;2.15;1.77;;;12.30;99.90;;;;;;5032837;28;20061;-83
2022/08/06 02:20:31;;;;;;;1.58;1.20;;;12.20;99.90;;;;;;5032184;28;20048;-83
2022/08/06 02:22:59;;;;;;;2.08;1.42;;;12.20;99.90;;;;;;5032617;28;20045;-82
2022/08/06 02:25:26;;;;;;;3.28;1.60;;;12.20;99.90;;;;;;5032367;28;20049;-84
2022/08/06 02:27:55;;;;;;;1.95;1.60;;;12.20;99.90;;;;;;5032039;28;20046;-85
2022/08/06 02:30:22;;;;;;;2.33;1.65;;;12.10;99.90;;;;;;5032154;28;20128;-82
2022/08/06 02:32:48;;;;;;;3.67;1.70;;;12.10;99.90;;;;;;5031832;28;20422;-83
2022/08/06 02:35:14;;;;;;;2.13;1.33;;;12.00;99.90;;;;;;5031107;28;20485;-82
2022/08/06 02:37:52;;;;;;;2.28;1.40;;;11.90;99.90;;;;;;5031211;28;20061;-83
2022/08/06 02:40:30;;;;;;;1.15;1.13;;;11.90;99.90;;;;;;5032820;28;20055;-80
2022/08/06 02:43:08;;;;;;;1.52;1.15;;;11.90;99.90;;;;;;5032619;28;20049;-84
2022/08/06 02:45:43;;;;;;;1.85;1.10;;;11.80;99.90;;;;;;5032391;28;20124;-83
2022/08/06 02:48:35;;;;;;;1.52;1.27;;;11.80;99.90;;;;;;5032203;28;20077;-82
2022/08/06 02:51:05;;;;;;;1.40;1.30;;;11.80;99.90;;;;;;5032260;28;20049;-84
2022/08/06 02:53:51;;;;;;;1.80;1.60;;;11.80;99.90;;;;;;5030668;28;20485;-83
2022/08/06 02:56:17;;;;;;;1.52;1.42;;;11.80;99.90;;;;;;5032545;28;20128;-82
2022/08/06 02:58:49;;;;;;;4.43;1.58;;;11.70;99.90;;;;;;5031854;28;20128;-82
2022/08/06 03:01:21;;;;;;;1.33;1.20;;;11.70;99.90;;;;;;5032006;28;20049;-82
2022/08/06 03:03:50;;;;;;;2.95;1.35;;;11.70;99.90;;;;;;5031858;28;20045;-82
2022/08/06 03:06:19;;;;;;;3.03;1.50;;;11.70;99.90;;;;;;5032100;28;20057;-83
2022/08/06 03:08:47;;;;;;;1.75;1.40;;;11.70;99.90;;;;;;5032254;28;20045;-83
2022/08/06 03:11:15;;;;;;;1.42;1.20;;;11.30;99.90;;;;;;5035398;28;20086;-81
2022/08/06 03:13:42;;;;;;;1.80;1.52;;;11.60;99.90;;;;;;5035285;28;20488;-83
2022/08/06 03:16:09;;;;;;;1.70;1.60;;;11.60;99.90;;;;;;5035804;28;20056;-82
2022/08/06 03:18:37;;;;;;;2.38;1.73;;;11.60;99.90;;;;;;5035419;28;20129;-83
2022/08/06 03:21:04;;;;;;;2.38;2.05;;;11.60;99.90;;;;;;5034233;28;20042;-83
2022/08/06 03:23:31;;;;;;;2.13;1.92;;;11.60;99.90;;;;;;5035507;28;20099;-82
2022/08/06 03:25:59;;;;;;;2.92;1.90;;;11.60;99.90;;;;;;5035544;28;20102;-84
2022/08/06 03:28:25;;;;;;;2.40;2.20;;;11.60;99.90;;;;;;5035007;28;20143;-83
2022/08/06 03:30:53;;;;;;;2.22;2.00;;;11.60;99.90;;;;;;5034285;28;20055;-82
2022/08/06 03:33:19;;;;;;;1.70;1.55;;;11.50;99.90;;;;;;5034211;28;20050;-82
2022/08/06 03:35:48;;;;;;;3.33;2.08;;;11.50;99.90;;;;;;5035272;28;20099;-80
2022/08/06 03:38:15;;;;;;;4.78;2.00;;;11.50;99.90;;;;;;5034728;28;20468;-83
2022/08/06 03:40:44;;;;;;;2.00;1.77;;;11.40;99.90;;;;;;5034922;28;20111;-84
2022/08/06 03:43:10;;;;;;;1.75;1.63;;;11.40;99.90;;;;;;5035315;28;20071;-83
2022/08/06 03:45:43;;;;;;;2.20;1.88;;;11.40;99.90;;;;;;5034828;28;20052;-81
2022/08/06 03:48:14;;;;;;;5.00;2.05;;;11.40;99.90;;;;;;5034612;28;20038;-81
2022/08/06 03:50:43;;;;;;;2.08;1.92;;;11.40;99.90;;;;;;5034008;28;20077;-83
2022/08/06 03:53:17;;;;;;;4.35;2.38;;;11.30;99.90;;;;;;5034856;28;20041;-82
2022/08/06 03:55:44;;;;;;;2.20;1.80;;;11.30;99.90;;;;;;5034568;28;20134;-83
2022/08/06 03:58:13;;;;;;;2.15;2.00;;;11.30;99.90;;;;;;5034677;28;20053;-83
2022/08/06 04:00:50;;;;;;;7.05;2.90;;;11.30;99.90;;;;;;5033575;28;20053;-82
2022/08/06 04:03:16;;;;;;;4.03;2.28;;;11.20;99.90;;;;;;5034548;28;20041;-84
2022/08/06 04:05:43;;;;;;;3.08;2.00;;;11.20;99.90;;;;;;5034119;28;20045;-80
2022/08/06 04:08:10;;;;;;;2.47;2.08;;;11.20;99.90;;;;;;5034246;28;20051;-82
2022/08/06 04:10:38;;;;;;;4.72;2.58;;;11.20;99.90;;;;;;5017083;28;20187;-81
2022/08/06 04:13:08;;;;;;;2.63;2.08;;;11.10;99.90;;;;;;5034483;28;20056;-83
2022/08/06 04:15:38;;;;;;;4.57;2.55;;;11.10;99.90;;;;;;5034533;28;20049;-84
2022/08/06 04:18:10;;;;;;;2.65;2.42;;;11.10;99.90;;;;;;5034203;28;20489;-83
2022/08/06 04:20:37;;;;;;;2.63;2.13;;;11.10;99.90;;;;;;5033137;28;20091;-82
2022/08/06 04:23:03;;;;;;;4.50;2.33;;;11.20;99.90;;;;;;5034238;28;20051;-83
2022/08/06 04:25:34;;;;;;;3.25;2.08;;;11.20;99.90;;;;;;5034029;28;20053;-81
2022/08/06 04:28:01;;;;;;;3.53;2.40;;;11.20;99.90;;;;;;5033898;28;20041;-81
2022/08/06 04:30:28;;;;;;;2.25;2.05;;;11.20;99.90;;;;;;5033804;28;20555;-81
2022/08/06 04:32:54;;;;;;;2.60;2.15;;;11.20;99.90;;;;;;5033079;28;20041;-81
2022/08/06 04:35:21;;;;;;;2.45;2.03;;;11.20;99.90;;;;;;5033744;28;20516;-84
2022/08/06 04:37:47;;;;;;;2.90;2.17;;;11.20;99.90;;;;;;5032821;28;20492;-82
2022/08/06 04:40:15;;;;;;;2.53;2.00;;;11.20;99.90;;;;;;5033713;28;20045;-83
2022/08/06 04:42:41;;;;;;;5.07;2.38;;;11.30;99.90;;;;;;5034242;28;20107;-83
2022/08/06 04:45:08;;;;;;;3.63;1.90;;;11.40;99.90;;;;;;5033644;28;20085;-84
2022/08/06 04:47:35;;;;;;;2.63;2.05;;;11.40;99.90;;;;;;5033511;28;20052;-82
2022/08/06 04:50:01;;;;;;;2.08;1.95;;;11.50;99.90;;;;;;5033447;28;20045;-82
2022/08/06 04:52:28;;;;;;;2.05;1.63;;;11.60;99.90;;;;;;5033515;28;20389;-83
2022/08/06 04:54:54;;;;;;;2.50;2.08;;;11.60;99.90;;;;;;5033189;28;20451;-81
2022/08/06 04:57:19;;;;;;;2.00;1.90;;;11.70;99.90;;;;;;5033367;28;20095;-83
2022/08/06 04:59:46;;;;;;;2.95;1.70;;;11.70;99.90;;;;;;5033318;28;20041;-80
2022/08/06 05:02:12;;;;;;;2.15;1.70;;;11.80;99.90;;;;;;5033643;28;20080;-80
2022/08/06 05:04:39;;;;;;;2.50;1.75;;;11.90;99.90;;;;;;5015886;28;20049;-82
2022/08/06 05:07:28;;;;;;;3.17;1.85;;;12.00;99.90;;;;;;5033031;28;20046;-83
2022/08/06 05:09:58;;;;;;;1.63;1.50;;;12.10;99.90;;;;;;5032149;28;20505;-81
2022/08/06 05:12:37;;;;;;;2.38;1.88;;;12.20;99.90;;;;;;5032971;28;20395;-82
2022/08/06 05:15:19;;;;;;;1.85;1.73;;;12.40;99.90;;;;;;5033261;28;20098;-82
2022/08/06 05:17:58;;;;;;;4.78;1.88;;;12.50;99.90;;;;;;5032911;28;20180;-82
2022/08/06 05:20:26;;;;;;;2.60;2.40;;;12.60;99.90;;;;;;5032814;28;20366;-80
2022/08/06 05:22:56;;;;;;;3.85;1.67;;;12.60;99.90;;;;;;5032710;28;20126;-83
2022/08/06 05:25:22;;;;;;;3.83;1.90;;;12.70;99.90;;;;;;5032871;28;20053;-83
2022/08/06 05:27:48;;;;;;;2.63;1.98;;;12.60;99.90;;;;;;5032793;28;20045;-79
2022/08/06 05:30:14;;;;;;;4.68;1.85;;;12.70;99.90;;;;;;5032502;28;20041;-82
2022/08/06 05:32:45;;;;;;;1.67;1.58;;;12.70;99.90;;;;;;5032449;28;20120;-82
2022/08/06 05:35:11;;;;;;;2.35;2.15;;;12.80;99.90;;;;;;5032867;28;20038;-81
2022/08/06 05:37:37;;;;;;;2.80;1.65;;;12.80;99.90;;;;;;5032622;28;20045;-81
2022/08/06 05:40:04;;;;;;;6.07;1.80;;;12.80;99.90;;;;;;5032500;28;20122;-82
2022/08/06 05:42:30;;;;;;;1.60;1.50;;;12.90;99.90;;;;;;5034091;28;20057;-80
2022/08/06 05:44:56;;;;;;;2.40;1.77;;;12.90;99.90;;;;;;5035846;28;20079;-80
2022/08/06 05:47:27;;;;;;;2.55;2.13;;;12.80;99.90;;;;;;5035515;28;20423;-81
2022/08/06 05:49:58;;;;;;;2.08;1.88;;;12.90;99.90;;;;;;5017625;28;20172;-82
2022/08/06 05:52:28;;;;;;;1.60;1.50;;;13.00;99.90;;;;;;5033215;28;20048;-81
2022/08/06 05:54:55;;;;;;;2.53;2.33;;;13.00;99.90;;;;;;5032118;28;20058;-83
2022/08/06 05:58:02;;;;;;;2.65;1.92;;;13.10;99.90;;;;;;5032046;28;20041;-81
2022/08/06 06:00:32;;;;;;;2.10;1.73;;;13.20;99.90;;;;;;4998519;28;20053;-82
2022/08/06 06:02:59;;;;;;;1.77;1.55;;;13.30;99.90;;;;;;5032104;28;20045;-82
2022/08/06 06:05:26;;;;;;;2.10;1.40;;;13.40;99.90;;;;;;5031706;28;20049;-82
2022/08/06 06:07:55;;;;;;;1.58;1.27;;;13.40;99.90;;;;;;5032139;28;20425;-82
2022/08/06 06:10:23;;;;;;;1.35;1.35;;;13.60;99.90;;;;;;5032376;28;20125;-80
2022/08/06 06:12:49;;;;;;;1.30;1.20;;;13.70;99.90;;;;;;5032323;28;20128;-81
2022/08/06 06:15:16;;;;;;;1.50;1.40;;;13.80;99.90;;;;;;5032293;28;20056;-81
2022/08/06 06:18:10;;;;;;;1.95;1.60;;;13.90;99.90;;;;;;5032597;28;20103;-81
2022/08/06 06:20:47;;;;;;;1.65;1.15;;;14.00;99.90;;;;;;5032198;28;20045;-80
2022/08/06 06:23:17;;;;;;;1.60;1.30;;;14.10;99.90;;;;;;5032178;28;20410;-81
2022/08/06 06:25:51;;;;;;;1.88;1.75;;;14.10;99.90;;;;;;5032234;28;20041;-83
2022/08/06 06:28:39;;;;;;;1.58;1.30;;;14.30;99.90;;;;;;5031793;28;20037;-80
2022/08/06 06:31:17;;;;;;;1.33;1.17;;;14.40;99.90;;;;;;5031428;28;20052;-77
2022/08/06 06:34:08;;;;;;;1.98;1.52;;;14.60;99.90;;;;;;5031605;28;20517;-78
2022/08/06 06:36:55;;;;;;;3.90;1.50;;;14.60;99.90;;;;;;5032317;28;20045;-79
2022/08/06 06:40:02;;;;;;;3.90;1.48;;;14.70;99.90;;;;;;5031637;28;20045;-80
2022/08/06 06:42:36;;;;;;;1.75;1.40;;;14.90;99.90;;;;;;5032103;28;20057;-80
2022/08/06 06:45:13;;;;;;;2.58;1.35;;;15.10;99.90;;;;;;5032623;28;20061;-81
2022/08/06 06:48:04;;;;;;;1.58;1.05;;;15.30;99.90;;;;;;5035601;28;20048;-82
2022/08/06 06:50:34;;;;;;;1.50;1.27;;;15.60;99.90;;;;;;5036112;28;20100;-81
2022/08/06 06:53:00;;;;;;;5.20;1.10;;;16.30;99.90;;;;;;5035524;28;20528;-81
2022/08/06 06:55:39;;;;;;;3.35;1.35;;;17.00;99.90;;;;;;5035816;28;20062;-80
2022/08/06 06:59:04;;;;;;;2.92;1.02;;;18.00;99.90;;;;;;5034150;28;20049;-81
2022/08/06 07:01:32;;;;;;;1.40;1.27;;;19.60;99.90;;;;;;4993785;28;20050;-81
2022/08/06 07:04:02;;;;;;;0.80;0.80;;;21.10;99.90;;;;;;4993639;28;20042;-82
2022/08/06 07:06:29;;;;;;;0.57;0.57;;;22.10;99.90;;;;;;5014449;28;20064;-82
2022/08/06 07:08:57;;;;;;;1.10;0.77;;;23.20;99.90;;;;;;5035452;28;20050;-82
2022/08/06 07:11:25;;;;;;;3.22;0.80;;;23.80;98.90;;;;;;5035583;28;20077;-81
2022/08/06 07:13:53;;;;;;;2.00;1.13;;;24.40;97.60;;;;;;5035333;28;20077;-82
2022/08/06 07:16:22;;;;;;;2.38;1.23;;;24.80;96.30;;;;;;5035129;28;20052;-81
2022/08/06 07:18:49;;;;;;;0.98;0.75;;;24.20;95.20;;;;;;5035142;28;20049;-80
2022/08/06 07:21:17;;;;;;;2.17;0.60;;;23.40;95.70;;;;;;5034888;28;20108;-79
2022/08/06 07:23:51;;;;;;;1.90;0.55;;;23.60;95.30;;;;;;5035259;28;20050;-80
2022/08/06 07:26:21;;;;;;;1.60;0.80;;;24.30;94.40;;;;;;5034988;28;20103;-81
2022/08/06 07:28:49;;;;;;;0.55;0.50;;;24.90;93.10;;;;;;5035244;28;20041;-79
2022/08/06 07:31:16;;;;;;;0.80;0.80;;;25.80;92.30;;;;;;5034855;28;20456;-79
2022/08/06 07:33:44;;;;;;;3.90;0.90;;;26.30;92.20;;;;;;5034810;28;20141;-80
2022/08/06 07:36:10;;;;;;;1.95;0.80;;;27.00;91.70;;;;;;5034641;28;20057;-80
2022/08/06 07:38:41;;;;;;;0.88;0.55;;;27.60;91.00;;;;;;5034587;28;20038;-81
2022/08/06 07:41:09;;;;;;;4.65;1.90;;;28.00;84.10;;;;;;5034922;28;20605;-80
2022/08/06 07:43:51;;;;;;;2.47;0.70;;;28.10;87.70;;;;;;5034092;28;20054;-81
2022/08/06 07:46:22;;;;;;;2.28;0.50;;;28.00;83.20;;;;;;5034319;28;20482;-78
2022/08/06 07:48:59;;;;;;;0.95;0.60;;;27.90;84.80;;;;;;5034590;28;20080;-80
2022/08/06 07:51:33;;;;;;;1.60;0.45;;;27.80;83.70;;;;;;5034530;28;20045;-80
2022/08/06 07:53:59;;;;;;;2.72;0.70;;;28.20;80.40;;;;;;5034411;28;20081;-81
2022/08/06 07:56:26;;;;;;;2.53;0.68;;;28.10;83.50;;;;;;5034560;28;20053;-81
2022/08/06 07:58:53;;;;;;;1.00;0.50;;;27.40;80.10;;;;;;5034173;28;20424;-81
2022/08/06 08:01:19;;;;;;;0.60;0.60;;;27.40;81.70;;;;;;5033171;28;20052;-81
2022/08/06 08:06:31;;;;;;;1.33;0.70;;;25.90;81.40;;;;;;5034275;28;20045;-82
2022/08/06 08:09:02;;;;;;;0.77;0.60;;;26.00;83.30;;;;;;5034534;28;20469;-81
2022/08/06 08:11:29;;;;;;;1.63;1.33;;;26.00;79.80;;;;;;5034096;28;20171;-81
2022/08/06 08:13:55;;;;;;;1.60;0.50;;;25.80;82.40;;;;;;5034183;28;20057;-81
2022/08/06 08:16:22;;;;;;;1.33;0.50;;;26.50;82.50;;;;;;5034176;28;20480;-81
2022/08/06 08:18:48;;;;;;;1.27;0.73;;;26.50;81.10;;;;;;5033315;28;20051;-81
2022/08/06 08:21:14;;;;;;;2.47;1.52;;;25.70;80.30;;;;;;5034217;28;20049;-81
2022/08/06 08:23:41;;;;;;;1.35;0.73;;;24.80;80.40;;;;;;5034095;28;20120;-82
2022/08/06 08:26:07;;;;;;;2.50;0.50;;;24.30;81.00;;;;;;5034121;28;20045;-81
2022/08/06 08:28:33;;;;;;;1.10;0.60;;;23.90;81.70;;;;;;5033923;28;20095;-81
2022/08/06 08:31:01;;;;;;;0.57;0.50;;;24.20;81.80;;;;;;5032820;28;20052;-82
2022/08/06 08:33:28;;;;;;;1.67;0.50;;;25.30;80.20;;;;;;5033647;28;20045;-81
2022/08/06 08:35:54;;;;;;;2.40;0.50;;;26.30;79.00;;;;;;5034048;28;20057;-81
2022/08/06 08:38:20;;;;;;;1.17;0.68;;;26.70;78.10;;;;;;5033797;28;20511;-81
2022/08/06 08:40:49;;;;;;;3.05;0.95;;;26.90;77.30;;;;;;5032483;28;20491;-74
2022/08/06 08:43:23;;;;;;;0.50;0.50;;;26.90;76.40;;;;;;5033460;28;20052;-72
2022/08/06 08:45:50;;;;;;;2.63;0.80;;;26.00;76.60;;;;;;5033866;28;20124;-77
2022/08/06 08:48:22;;;;;;;2.42;0.70;;;25.00;77.70;;;;;;5033598;28;20045;-79
2022/08/06 08:50:48;;;;;;;0.80;0.60;;;24.30;77.20;;;;;;5033484;28;20092;-77
2022/08/06 08:53:20;;;;;;;1.88;0.77;;;23.50;78.50;;;;;;5033338;28;20037;-76
2022/08/06 08:55:46;;;;;;;3.55;0.80;;;23.10;80.10;;;;;;5033197;28;20462;-79
2022/08/06 08:58:13;;;;;;;1.15;0.85;;;22.70;80.70;;;;;;5033374;28;20048;-78
2022/08/06 09:00:40;;;;;;;1.17;0.90;;;22.30;81.20;;;;;;5033119;28;20121;-77
2022/08/06 09:03:07;;;;;;;6.82;1.60;;;21.90;81.60;;;;;;5033035;28;20056;-77
2022/08/06 09:05:34;;;;;;;1.73;1.30;;;21.60;82.10;;;;;;5033236;28;20065;-75
2022/08/06 09:08:02;;;;;;;1.88;1.30;;;21.20;82.40;;;;;;5032911;28;20053;-76
2022/08/06 09:10:29;;;;;;;1.50;1.38;;;21.30;83.80;;;;;;5033396;28;20073;-74
2022/08/06 09:12:55;;;;;;;2.00;1.42;;;22.40;83.90;;;;;;5031939;28;20176;-80
2022/08/06 09:15:21;;;;;;;9.27;1.23;;;23.90;81.70;;;;;;5033001;28;20038;-76
2022/08/06 09:17:47;;;;;;;5.53;0.93;;;24.90;80.50;;;;;;5033004;28;20057;-80
2022/08/06 09:20:13;;;;;;;2.35;1.00;;;24.70;79.10;;;;;;5032908;28;20089;-82
2022/08/06 09:22:39;;;;;;;1.65;0.90;;;24.20;78.90;;;;;;5033177;28;20103;-81
2022/08/06 09:25:05;;;;;;;3.35;0.95;;;23.80;79.20;;;;;;5032555;28;20080;-79
2022/08/06 09:27:35;;;;;;;2.28;0.85;;;23.30;79.40;;;;;;5033115;28;20041;-82
2022/08/06 09:30:05;;;;;;;3.00;1.02;;;22.80;80.10;;;;;;5031537;28;20057;-80
2022/08/06 09:32:43;;;;;;;0.98;0.80;;;22.30;81.50;;;;;;5032234;28;20357;-80
2022/08/06 09:35:26;;;;;;;1.75;0.80;;;21.80;83.60;;;;;;5032623;28;20532;-80
2022/08/06 09:38:02;;;;;;;1.63;0.77;;;21.20;85.90;;;;;;5032511;28;20495;-80
2022/08/06 09:40:27;;;;;;;2.67;0.90;;;20.60;88.10;;;;;;5032238;28;20049;-80
2022/08/06 09:42:53;;;;;;;1.45;0.90;;;20.30;89.00;;;;;;5032785;28;20420;-79
2022/08/06 09:45:21;;;;;;;2.65;1.10;;;19.90;90.50;;;;;;5033013;28;20500;-80
2022/08/06 09:48:07;;;;;;;6.82;1.33;;;19.80;90.80;;;;;;5032714;28;20120;-80
2022/08/06 09:50:42;;;;;;;2.42;1.20;;;19.60;92.20;;;;;;5032703;28;20554;-80
2022/08/06 09:53:08;;;;;;;1.77;1.20;;;19.50;91.90;;;;;;5033067;28;20041;-80
2022/08/06 09:55:35;;;;;;;1.95;1.00;;;19.30;92.40;;;;;;5032710;28;20112;-80
2022/08/06 09:58:01;;;;;;;2.65;1.27;;;19.30;92.10;;;;;;5032626;28;20049;-80
2022/08/06 10:00:29;;;;;;;1.70;0.90;;;19.10;91.80;;;;;;5032710;28;20085;-80
2022/08/06 10:02:56;;;;;;;3.60;1.17;;;19.10;91.50;;;;;;5032517;28;20041;-81
2022/08/06 10:05:23;;;;;;;2.35;1.05;;;19.10;91.60;;;;;;5032473;28;20053;-81
2022/08/06 10:08:05;;;;;;;3.75;1.48;;;19.10;91.90;;;;;;5032398;28;20120;-80
2022/08/06 10:10:45;;;;;;;2.97;1.10;;;19.20;92.80;;;;;;5032603;28;20077;-80
2022/08/06 10:13:26;;;;;;;2.83;1.27;;;19.30;93.10;;;;;;5032367;28;20041;-81
2022/08/06 10:15:57;;;;;;;4.15;1.52;;;19.90;93.00;;;;;;5031510;28;20049;-80
2022/08/06 10:18:41;;;;;;;1.55;1.17;;;21.00;92.10;;;;;;5032293;28;20076;-81
2022/08/06 10:21:10;;;;;;;3.38;1.30;;;21.90;91.00;;;;;;5036361;28;20050;-81
2022/08/06 10:23:40;;;;;;;2.60;1.23;;;22.80;89.70;;;;;;5036667;28;20072;-81
2022/08/06 10:26:08;;;;;;;2.80;1.13;;;23.50;88.00;;;;;;5036191;28;20045;-81
2022/08/06 10:28:36;;;;;;;2.90;1.13;;;24.30;87.70;;;;;;5036351;28;20071;-81
2022/08/06 10:31:06;;;;;;;1.30;1.00;;;24.50;86.70;;;;;;5036074;28;20049;-81
2022/08/06 10:33:43;;;;;;;3.60;1.33;;;24.70;81.30;;;;;;5036149;28;20048;-81
2022/08/06 10:36:12;;;;;;;0.93;0.85;;;24.20;80.40;;;;;;5036344;28;20095;-81
2022/08/06 10:38:42;;;;;;;1.38;1.08;;;23.40;84.70;;;;;;5036235;28;20080;-80
2022/08/06 10:41:10;;;;;;;2.22;1.35;;;23.30;83.90;;;;;;5036331;28;20131;-81
2022/08/06 10:43:38;;;;;;;1.75;1.20;;;23.80;85.10;;;;;;5036054;28;20072;-80
2022/08/06 10:46:06;;;;;;;1.38;1.25;;;24.80;84.60;;;;;;5035978;28;20045;-81
2022/08/06 10:48:34;;;;;;;1.23;0.88;;;24.90;81.40;;;;;;5035489;28;20466;-81
2022/08/06 10:51:00;;;;;;;1.50;1.20;;;24.50;82.10;;;;;;5035964;28;20046;-80
2022/08/06 10:53:27;;;;;;;2.10;1.23;;;24.10;81.20;;;;;;5035545;28;20130;-81
2022/08/06 10:55:53;;;;;;;3.00;1.33;;;23.70;82.10;;;;;;5035043;28;20449;-81
2022/08/06 10:58:20;;;;;;;2.78;1.30;;;23.40;82.90;;;;;;5035489;28;20103;-80
2022/08/06 11:00:46;;;;;;;2.15;1.38;;;23.10;82.40;;;;;;5035476;28;20056;-80
2022/08/06 11:03:19;;;;;;;6.45;1.50;;;22.90;81.90;;;;;;5035409;28;20056;-80
2022/08/06 11:05:55;;;;;;;3.35;1.48;;;22.90;82.50;;;;;;5017983;28;20054;-81
2022/08/06 11:08:48;;;;;;;2.25;1.48;;;22.80;82.40;;;;;;5035157;28;20042;-80
2022/08/06 11:11:48;;;;;;;2.67;1.50;;;22.70;81.40;;;;;;5035631;28;20045;-81
2022/08/06 11:14:14;;;;;;;2.88;1.25;;;22.70;82.80;;;;;;5021612;28;20054;-80
2022/08/06 11:16:40;;;;;;;1.20;1.05;;;22.70;82.80;;;;;;5035521;28;20196;-80
2022/08/06 11:19:09;;;;;;;1.83;1.27;;;22.80;83.00;;;;;;5035195;28;20191;-80
2022/08/06 11:21:47;;;;;;;2.67;1.67;;;22.90;82.90;;;;;;5034919;28;20042;-80
2022/08/06 11:24:14;;;;;;;1.90;1.15;;;23.00;81.10;;;;;;5035216;28;20041;-81
2022/08/06 11:26:42;;;;;;;2.60;1.33;;;23.20;82.00;;;;;;5034813;28;20523;-81
2022/08/06 11:29:09;;;;;;;4.18;1.50;;;23.50;80.40;;;;;;5034758;28;20048;-79
2022/08/06 11:31:46;;;;;;;2.00;1.40;;;23.60;80.00;;;;;;5034249;28;20053;-80
2022/08/06 11:34:15;;;;;;;5.35;1.63;;;23.60;80.10;;;;;;5035142;28;20063;-80
2022/08/06 11:36:56;;;;;;;4.10;1.65;;;23.70;77.80;;;;;;5034875;28;20076;-80
2022/08/06 11:39:24;;;;;;;3.78;1.50;;;23.50;76.10;;;;;;5033613;28;20049;-81
2022/08/06 11:41:58;;;;;;;2.70;1.25;;;23.60;77.50;;;;;;5034801;28;20142;-80
2022/08/06 11:44:29;;;;;;;1.48;1.20;;;23.80;76.90;;;;;;5034543;28;20124;-81
2022/08/06 11:47:08;;;;;;;1.88;1.40;;;23.90;74.60;;;;;;5033964;28;20125;-81
2022/08/06 11:49:37;;;;;;;3.10;1.58;;;24.10;73.40;;;;;;5034688;28;20045;-80
2022/08/06 11:52:02;;;;;;;2.17;1.40;;;24.40;73.90;;;;;;5034356;28;20120;-80
2022/08/06 11:54:43;;;;;;;3.25;1.30;;;24.30;74.00;;;;;;5034355;28;20543;-80
2022/08/06 11:57:15;;;;;;;2.50;1.58;;;24.40;73.40;;;;;;5034395;28;20057;-81
2022/08/06 11:59:45;;;;;;;4.68;2.00;;;24.50;73.40;;;;;;5033326;28;20049;-80
2022/08/06 12:02:13;;;;;;;2.28;1.80;;;24.70;72.80;;;;;;5034164;28;20053;-81
2022/08/06 12:04:44;;;;;;;2.60;1.70;;;24.50;70.90;;;;;;5032957;28;20131;-80
2022/08/06 12:07:23;;;;;;;2.83;2.05;;;24.00;70.20;;;;;;5034390;28;20050;-81
2022/08/06 12:10:05;;;;;;;4.82;1.92;;;24.00;69.60;;;;;;5033871;28;20438;-81
2022/08/06 12:12:42;;;;;;;1.80;1.70;;;23.70;67.60;;;;;;5034205;28;20454;-81
2022/08/06 12:15:19;;;;;;;2.33;1.88;;;23.10;71.10;;;;;;5034180;28;20049;-81
2022/08/06 12:17:54;;;;;;;2.22;1.88;;;23.00;69.50;;;;;;5034677;28;20068;-81
2022/08/06 12:20:37;;;;;;;2.05;1.85;;;23.00;69.80;;;;;;5034050;28;20045;-81
2022/08/06 12:23:09;;;;;;;2.80;1.80;;;23.10;70.40;;;;;;5034251;28;20049;-80
2022/08/06 12:25:40;;;;;;;2.85;2.28;;;23.20;71.60;;;;;;5033987;28;20041;-80
2022/08/06 12:28:07;;;;;;;5.25;2.20;;;23.30;70.10;;;;;;5034103;28;20104;-80
2022/08/06 12:30:42;;;;;;;2.80;1.92;;;23.30;70.80;;;;;;5033796;28;20124;-80
2022/08/06 12:33:09;;;;;;;4.00;2.10;;;23.30;69.10;;;;;;5034199;28;20049;-80
2022/08/06 12:35:36;;;;;;;2.50;1.65;;;23.20;70.30;;;;;;5034208;28;20056;-80
2022/08/06 12:38:02;;;;;;;3.22;2.17;;;23.20;69.80;;;;;;5033959;28;20064;-81
2022/08/06 12:40:28;;;;;;;3.83;2.28;;;23.30;69.90;;;;;;5033422;28;20551;-80
2022/08/06 12:43:02;;;;;;;4.13;2.15;;;23.20;67.80;;;;;;5032400;28;20071;-81
2022/08/06 12:45:30;;;;;;;4.35;2.30;;;23.10;68.80;;;;;;5033426;28;20041;-80
2022/08/06 12:48:08;;;;;;;3.70;2.38;;;23.20;69.40;;;;;;5033110;28;20037;-81
2022/08/06 12:50:36;;;;;;;4.63;2.72;;;23.30;68.30;;;;;;5032725;28;20451;-80
2022/08/06 12:53:10;;;;;;;2.35;1.77;;;23.10;69.50;;;;;;5033204;28;20098;-80
2022/08/06 12:55:49;;;;;;;2.40;2.08;;;23.30;71.20;;;;;;5033098;28;20061;-81
2022/08/06 12:58:36;;;;;;;4.50;1.88;;;23.50;70.50;;;;;;5033489;28;20060;-80
2022/08/06 13:01:04;;;;;;;4.22;2.58;;;23.60;69.50;;;;;;5033020;28;20489;-81
2022/08/06 13:03:32;;;;;;;2.67;2.45;;;23.70;70.30;;;;;;5032874;28;20128;-81
2022/08/06 13:06:01;;;;;;;3.30;2.03;;;23.80;69.80;;;;;;5032833;28;20041;-81
2022/08/06 13:08:27;;;;;;;3.17;2.35;;;23.90;70.10;;;;;;5031567;28;20067;-80